KNUC

Details ICAO KNUC
Name San Clemente Island NALF
Region United States
Timezone America/Los_Angeles (UTC-8.0)
Plans Departing 189
Arriving 217
Stats Elevation 183 ft / 56 m (AMSL)
Location 33.023000° -118.588000°
Runways 1
Magnetic Variation 11.775° E
Sunrise 2018-12-14 14:50:45 UTC / 2018-12-14 06:50:45 Local
Sunset 2018-12-15 00:50:10 UTC / 2018-12-14 16:50:10 Local
Advertisement - Login to hide

Runways

ID Width Length Bearing (true/mag) Surface Threshold Overrun Markings Lighting
06 180 ft / 55 m 9,304 ft / 2,836 m 67.20° / 55.43° CONCRETE 0 ft / 0 m 0 ft / 0 m VISUAL EDGE THRESHOLD REIL-OMNI
24 180 ft / 55 m 9,304 ft / 2,836 m 247.22° / 235.44° CONCRETE 0 ft / 0 m 0 ft / 0 m PREC-APP EDGE THRESHOLD REIL-OMNI

Map

Weather


0- 5 10 15 20 25 30 35+ Temperature / °C

Clouds and Precipitation
Forecast for 2018-12-15 00:00 UTC. Updated 2 hours ago

Ground ~20,000 ft ~40,000 ft Winds

METAR

KNUC 142256Z 00000KT 10SM BKN160 OVC200 17/13 A3012 RMK AO2 SLP199 T01720128 $

TAF

TAF TAF KNUC 1415/1515 VRB06KT 9999 FEW007 BKN150 QNH3012INS FM150600 3308G15KT 9999 SCT012 QNH3005INS TEMPO 1509/1515 4800 BR BKN005 T20/1422Z T13/1513Z FS30125

Frequencies

Tower 126.75 MHz
Departure 127.05 MHz
Recorded 268.60 MHz ATIS
Approach 127.05 MHz
Ground 119.55 MHz
Warning: Do not use this data for real-world aviation or navigation. No guarantee of current accuracy is given.